createdAt,value
2022-12-22T00:02:13.254Z,83.90
2022-12-22T00:05:01.119Z,84.10
2022-12-22T00:07:47.074Z,83.90
2022-12-22T00:10:32.846Z,83.50
2022-12-22T00:13:18.641Z,83.70
2022-12-22T00:16:04.195Z,83.60
2022-12-22T00:18:49.853Z,83.70
2022-12-22T00:21:35.560Z,83.70
2022-12-22T00:24:21.363Z,83.60
2022-12-22T00:27:07.115Z,83.70
2022-12-22T00:29:56.483Z,83.70
2022-12-22T00:32:42.097Z,83.70
2022-12-22T00:35:36.951Z,83.40
2022-12-22T00:38:27.015Z,83.50
2022-12-22T00:41:12.677Z,83.60
2022-12-22T00:43:58.374Z,83.70
2022-12-22T00:46:44.321Z,83.80
2022-12-22T00:49:29.990Z,84.20
2022-12-22T00:52:15.680Z,83.70
2022-12-22T00:55:01.352Z,83.60
2022-12-22T00:57:47.097Z,83.50
2022-12-22T01:00:36.427Z,83.60
2022-12-22T01:03:22.555Z,83.50
2022-12-22T01:06:08.289Z,83.40
2022-12-22T01:08:54.136Z,83.40
2022-12-22T01:11:39.922Z,83.40
2022-12-22T01:14:32.017Z,83.20
2022-12-22T01:17:17.628Z,83.30
2022-12-22T01:20:03.626Z,83.10
2022-12-22T01:22:49.614Z,83.00
2022-12-22T01:25:36.225Z,83.10
2022-12-22T01:28:21.960Z,83.20
2022-12-22T01:31:07.794Z,83.10
2022-12-22T01:33:53.511Z,82.70
2022-12-22T01:36:39.417Z,82.80
2022-12-22T01:39:25.094Z,82.80
2022-12-22T01:42:10.901Z,82.90
2022-12-22T01:44:56.626Z,83.00
2022-12-22T01:47:48.635Z,82.90
2022-12-22T01:50:38.640Z,83.00
2022-12-22T01:53:25.522Z,83.10
2022-12-22T01:56:11.343Z,83.20
2022-12-22T01:59:00.065Z,83.00
2022-12-22T02:01:49.192Z,82.90
2022-12-22T02:04:35.304Z,83.00
2022-12-22T02:07:23.699Z,82.90
2022-12-22T02:10:13.844Z,83.00
2022-12-22T02:12:59.652Z,82.90
2022-12-22T02:15:52.967Z,83.00
2022-12-22T02:18:46.985Z,83.10
2022-12-22T02:21:33.177Z,83.20
2022-12-22T02:24:18.886Z,83.50
2022-12-22T02:27:04.878Z,83.40
2022-12-22T02:29:54.257Z,83.40
2022-12-22T02:32:41.899Z,83.30
2022-12-22T02:35:29.787Z,83.30
2022-12-22T02:38:33.744Z,83.30
2022-12-22T02:41:22.420Z,83.20
2022-12-22T02:44:12.561Z,83.20
2022-12-22T02:46:58.453Z,83.10
2022-12-22T02:49:45.131Z,82.90
2022-12-22T02:52:37.962Z,82.90
2022-12-22T02:55:23.511Z,82.90
2022-12-22T02:58:09.940Z,82.90
2022-12-22T03:00:56.897Z,83.00
2022-12-22T03:03:42.957Z,83.30
2022-12-22T03:06:28.841Z,83.10
2022-12-22T03:09:14.601Z,83.20
2022-12-22T03:12:00.408Z,84.00
2022-12-22T03:14:46.419Z,83.30
2022-12-22T03:17:32.124Z,83.40
2022-12-22T03:20:17.763Z,83.40
2022-12-22T03:23:03.496Z,83.30
2022-12-22T03:25:49.435Z,84.00
2022-12-22T03:28:16.739Z,83.30
2022-12-22T03:30:43.807Z,83.30
2022-12-22T03:33:10.882Z,83.40
2022-12-22T03:35:37.874Z,83.30
2022-12-22T03:38:04.963Z,83.50
2022-12-22T03:40:32.134Z,83.30
2022-12-22T03:43:17.826Z,83.60
2022-12-22T03:46:03.715Z,83.80
2022-12-22T03:48:30.669Z,83.80
2022-12-22T03:50:57.863Z,83.80
2022-12-22T03:53:24.938Z,83.90
2022-12-22T03:55:51.929Z,83.90
2022-12-22T03:58:19.003Z,83.90
2022-12-22T04:00:46.056Z,83.90
2022-12-22T04:03:13.270Z,83.90
2022-12-22T04:05:40.671Z,84.00
2022-12-22T04:08:07.767Z,84.00
2022-12-22T04:10:53.373Z,84.10
2022-12-22T04:13:20.607Z,84.00
2022-12-22T04:15:47.722Z,84.00
2022-12-22T04:18:14.655Z,84.10
2022-12-22T04:20:41.998Z,84.10
2022-12-22T04:23:09.070Z,84.10
2022-12-22T04:25:36.138Z,84.00
2022-12-22T04:28:03.336Z,84.00
2022-12-22T04:30:30.283Z,84.00
2022-12-22T04:32:57.417Z,83.90
2022-12-22T04:35:24.644Z,83.90
2022-12-22T04:37:51.595Z,83.80
2022-12-22T04:40:18.586Z,83.70
2022-12-22T04:42:45.790Z,83.90
2022-12-22T04:45:12.936Z,83.80
2022-12-22T04:47:39.944Z,83.70
2022-12-22T04:50:07.273Z,83.80
2022-12-22T04:52:34.246Z,83.50
2022-12-22T04:55:01.263Z,83.50
2022-12-22T04:57:28.357Z,83.60
2022-12-22T04:59:55.532Z,83.60
2022-12-22T05:02:22.685Z,83.70
2022-12-22T05:04:50.081Z,83.70
2022-12-22T05:07:17.067Z,83.70
2022-12-22T05:09:44.061Z,83.70
2022-12-22T05:12:30.065Z,83.70
2022-12-22T05:14:59.532Z,83.70
2022-12-22T05:17:26.606Z,83.80
2022-12-22T05:19:53.657Z,83.50
2022-12-22T05:22:20.552Z,83.70
2022-12-22T05:24:47.762Z,83.70
2022-12-22T05:27:14.805Z,83.30
2022-12-22T05:29:41.868Z,83.40
2022-12-22T05:32:08.849Z,83.20
2022-12-22T05:34:35.982Z,83.30
2022-12-22T05:37:02.892Z,83.50
2022-12-22T05:39:30.063Z,82.90
2022-12-22T05:41:57.118Z,83.20
2022-12-22T05:44:24.039Z,83.10
2022-12-22T05:46:52.446Z,83.00
2022-12-22T05:49:19.843Z,83.10
2022-12-22T05:51:46.914Z,83.00
2022-12-22T05:54:14.034Z,83.20
2022-12-22T05:56:41.056Z,83.20
2022-12-22T05:59:08.000Z,84.00
2022-12-22T06:01:35.101Z,83.30
2022-12-22T06:04:04.888Z,83.20
2022-12-22T06:06:31.864Z,83.20
2022-12-22T06:08:59.024Z,82.90
2022-12-22T06:11:26.104Z,82.90
2022-12-22T06:13:53.092Z,82.70
2022-12-22T06:16:20.080Z,82.70
2022-12-22T06:18:47.184Z,82.90
2022-12-22T06:21:14.162Z,82.80
2022-12-22T06:23:41.241Z,82.70
2022-12-22T06:26:08.949Z,82.60
2022-12-22T06:28:35.922Z,82.20
2022-12-22T06:31:02.928Z,82.20
2022-12-22T06:33:30.108Z,82.00
2022-12-22T06:35:59.545Z,81.70
2022-12-22T06:38:27.523Z,81.70
2022-12-22T06:40:54.585Z,82.00
2022-12-22T06:43:21.658Z,82.00
2022-12-22T06:45:48.795Z,82.00
2022-12-22T06:48:15.961Z,82.10
2022-12-22T06:50:43.018Z,82.10
2022-12-22T06:53:10.168Z,82.20
2022-12-22T06:55:37.260Z,82.20
2022-12-22T06:58:04.905Z,82.10
2022-12-22T07:00:31.981Z,82.10
2022-12-22T07:02:59.257Z,82.00
2022-12-22T07:05:26.570Z,81.90
2022-12-22T07:07:53.861Z,82.00
2022-12-22T07:10:40.909Z,82.00
2022-12-22T07:13:19.579Z,82.10
2022-12-22T07:15:48.925Z,82.00
2022-12-22T07:18:19.669Z,82.10
2022-12-22T07:20:49.477Z,82.10
2022-12-22T07:23:16.678Z,82.10
2022-12-22T07:25:44.227Z,82.10
2022-12-22T07:28:18.368Z,82.10
2022-12-22T07:30:47.346Z,82.00
2022-12-22T07:33:14.600Z,81.90
2022-12-22T07:35:41.595Z,82.00
2022-12-22T07:38:08.545Z,82.00
2022-12-22T07:40:41.089Z,82.30
2022-12-22T07:43:09.027Z,82.00
2022-12-22T07:45:36.735Z,81.90
2022-12-22T07:48:23.959Z,82.00
2022-12-22T07:50:51.020Z,82.20
2022-12-22T07:53:18.099Z,82.30
2022-12-22T07:55:45.042Z,82.40
2022-12-22T07:58:12.516Z,82.60
2022-12-22T08:00:39.764Z,82.70
2022-12-22T08:03:06.916Z,82.70
2022-12-22T08:05:34.063Z,82.70
2022-12-22T08:08:01.180Z,82.70
2022-12-22T08:10:28.351Z,82.90
2022-12-22T08:12:55.644Z,83.10
2022-12-22T08:15:22.838Z,83.30
2022-12-22T08:17:49.844Z,83.40
2022-12-22T08:20:17.167Z,83.50
2022-12-22T08:22:44.273Z,83.70
2022-12-22T08:25:11.209Z,83.70
2022-12-22T08:27:40.766Z,83.70
2022-12-22T08:30:08.101Z,83.80
2022-12-22T08:32:35.306Z,83.90
2022-12-22T08:35:02.323Z,83.90
2022-12-22T08:37:29.418Z,83.90
2022-12-22T08:39:57.504Z,84.00
2022-12-22T08:42:24.529Z,84.10
2022-12-22T08:44:54.384Z,84.10
2022-12-22T08:47:21.505Z,84.80
2022-12-22T08:49:49.150Z,84.00
2022-12-22T08:52:18.626Z,83.80
2022-12-22T08:54:46.613Z,83.70
2022-12-22T08:57:13.743Z,83.60
2022-12-22T08:59:40.883Z,83.50
2022-12-22T09:02:08.005Z,83.40
2022-12-22T09:04:35.221Z,84.20
2022-12-22T09:07:05.270Z,83.50
2022-12-22T09:09:33.089Z,84.30
2022-12-22T09:12:00.311Z,83.70
2022-12-22T09:14:27.652Z,84.20
2022-12-22T09:16:54.682Z,84.20
2022-12-22T09:19:21.849Z,84.30
2022-12-22T09:21:49.011Z,84.80
2022-12-22T09:24:16.065Z,84.90
2022-12-22T09:26:43.446Z,85.10
2022-12-22T09:29:10.728Z,85.10
2022-12-22T09:31:37.964Z,85.20
2022-12-22T09:34:05.172Z,85.30
2022-12-22T09:36:33.065Z,85.30
2022-12-22T09:39:04.483Z,85.40
2022-12-22T09:41:32.021Z,85.40
2022-12-22T09:44:05.920Z,85.50
2022-12-22T09:46:34.654Z,85.50
2022-12-22T09:49:01.791Z,85.50
2022-12-22T09:51:28.984Z,85.50
2022-12-22T09:53:57.813Z,85.60
2022-12-22T09:56:25.427Z,85.60
2022-12-22T09:58:52.596Z,85.60
2022-12-22T10:01:26.043Z,85.60
2022-12-22T10:04:00.054Z,85.60
2022-12-22T10:06:36.913Z,85.70
2022-12-22T10:09:49.623Z,85.70
2022-12-22T10:12:21.985Z,85.40
2022-12-22T10:14:49.757Z,85.60
2022-12-22T10:17:17.955Z,85.50
2022-12-22T10:19:45.764Z,85.50
2022-12-22T10:22:51.548Z,85.40
2022-12-22T10:25:45.198Z,85.30
2022-12-22T10:28:19.570Z,85.20
2022-12-22T10:30:47.160Z,85.10
2022-12-22T10:33:14.975Z,85.10
2022-12-22T10:35:49.202Z,85.20
2022-12-22T10:38:22.247Z,85.40
2022-12-22T10:40:50.410Z,85.30
2022-12-22T10:43:19.936Z,85.50
2022-12-22T10:45:47.716Z,85.20
2022-12-22T10:48:26.392Z,85.30
2022-12-22T10:50:53.360Z,85.00
2022-12-22T10:53:20.352Z,85.10
2022-12-22T10:55:47.844Z,84.80
2022-12-22T10:58:16.070Z,84.50
2022-12-22T11:00:45.027Z,84.30
2022-12-22T11:03:19.121Z,84.10
2022-12-22T11:05:51.172Z,83.90
2022-12-22T11:08:18.611Z,83.40
2022-12-22T11:11:05.718Z,83.20
2022-12-22T11:13:46.372Z,83.00
2022-12-22T11:16:19.871Z,82.80
2022-12-22T11:18:51.048Z,82.50
2022-12-22T11:21:30.196Z,82.40
2022-12-22T11:24:02.677Z,82.70
2022-12-22T11:26:32.399Z,82.00
2022-12-22T11:29:22.909Z,82.00
2022-12-22T11:32:07.075Z,82.10
2022-12-22T11:34:37.368Z,82.20
2022-12-22T11:37:24.573Z,82.00
2022-12-22T11:39:59.229Z,82.10
2022-12-22T11:42:50.150Z,81.80
2022-12-22T11:45:25.326Z,81.30
2022-12-22T11:47:59.565Z,81.60
2022-12-22T11:50:58.770Z,81.30
2022-12-22T11:53:40.452Z,81.50
2022-12-22T11:56:24.137Z,81.80
2022-12-22T11:59:01.954Z,81.80
2022-12-22T12:02:06.551Z,81.50
2022-12-22T12:04:37.336Z,81.50
2022-12-22T12:07:25.466Z,81.20
2022-12-22T12:09:53.255Z,81.10
2022-12-22T12:12:33.039Z,81.00
2022-12-22T12:15:03.168Z,79.70
2022-12-22T12:17:49.155Z,79.40
2022-12-22T12:20:16.710Z,78.30
2022-12-22T12:22:43.751Z,77.70
2022-12-22T12:25:26.263Z,78.00
2022-12-22T12:27:56.423Z,77.20
2022-12-22T12:30:39.536Z,77.70
2022-12-22T12:33:15.995Z,77.80
2022-12-22T12:35:45.900Z,77.40
2022-12-22T12:39:05.828Z,77.50
2022-12-22T12:41:34.184Z,76.30
2022-12-22T12:44:01.419Z,76.30
2022-12-22T12:46:40.881Z,76.60
2022-12-22T12:49:34.375Z,75.70
2022-12-22T12:52:04.816Z,75.80
2022-12-22T12:54:35.035Z,76.70
2022-12-22T12:57:10.116Z,75.70
2022-12-22T12:59:43.864Z,76.00
2022-12-22T13:02:30.319Z,75.80
2022-12-22T13:05:01.457Z,76.00
2022-12-22T13:07:48.494Z,76.40
2022-12-22T13:10:26.790Z,76.50
2022-12-22T13:12:54.783Z,77.00
2022-12-22T13:15:31.035Z,77.60
2022-12-22T13:17:58.754Z,78.00
2022-12-22T13:20:32.832Z,77.70
2022-12-22T13:23:01.999Z,78.00
2022-12-22T13:25:34.420Z,77.50
2022-12-22T13:28:02.131Z,77.50
2022-12-22T13:30:31.701Z,77.30
2022-12-22T13:33:02.708Z,77.50
2022-12-22T13:35:42.943Z,77.10
2022-12-22T13:38:34.158Z,77.20
2022-12-22T13:41:03.453Z,77.40
2022-12-22T13:43:31.310Z,78.10
2022-12-22T13:45:59.163Z,78.40
2022-12-22T13:48:30.919Z,78.90
2022-12-22T13:50:59.099Z,79.90
2022-12-22T13:56:22.145Z,80.40
2022-12-22T13:58:51.927Z,81.40
2022-12-22T14:01:22.462Z,81.10
2022-12-22T14:04:03.869Z,81.30
2022-12-22T14:06:36.799Z,81.30
2022-12-22T14:09:14.352Z,81.40
2022-12-22T14:11:48.878Z,81.70
2022-12-22T14:14:19.925Z,81.90
2022-12-22T14:16:49.564Z,81.90
2022-12-22T14:19:20.251Z,82.10
2022-12-22T14:21:47.704Z,82.10
2022-12-22T14:24:19.354Z,82.20
2022-12-22T14:26:49.837Z,82.40
2022-12-22T14:29:32.723Z,82.80
2022-12-22T14:32:03.266Z,82.90
2022-12-22T14:34:32.463Z,82.80
2022-12-22T14:36:59.864Z,82.70
2022-12-22T14:39:32.493Z,83.00
2022-12-22T14:42:01.471Z,83.90
2022-12-22T14:44:35.622Z,83.40
2022-12-22T14:47:18.224Z,83.30
2022-12-22T14:49:52.349Z,83.40
2022-12-22T14:52:21.296Z,83.30
2022-12-22T14:54:48.508Z,83.60
2022-12-22T14:57:18.406Z,83.40
2022-12-22T14:59:58.815Z,83.60
2022-12-22T15:02:29.921Z,83.60
2022-12-22T15:05:22.673Z,83.60
2022-12-22T15:08:08.377Z,83.60
2022-12-22T15:10:46.078Z,83.80
2022-12-22T15:13:21.697Z,83.80
2022-12-22T15:15:50.241Z,83.80
2022-12-22T15:18:23.152Z,84.10
2022-12-22T15:20:50.301Z,84.20
2022-12-22T15:23:17.526Z,84.20
2022-12-22T15:25:47.086Z,84.60
2022-12-22T15:28:14.411Z,85.00
2022-12-22T15:30:41.614Z,85.00
2022-12-22T15:33:15.762Z,85.10
2022-12-22T15:35:43.043Z,85.40
2022-12-22T15:38:11.072Z,85.50
2022-12-22T15:40:38.228Z,85.50
2022-12-22T15:43:22.287Z,85.50
2022-12-22T15:50:35.171Z,85.30
2022-12-22T15:53:05.726Z,85.10
2022-12-22T15:55:42.665Z,84.90
2022-12-22T15:58:13.557Z,84.70
2022-12-22T16:00:40.560Z,84.90
2022-12-22T16:03:07.978Z,84.80
2022-12-22T16:05:35.378Z,85.10
2022-12-22T16:08:02.613Z,85.20
2022-12-22T16:10:30.639Z,85.00
2022-12-22T16:13:03.066Z,85.10
2022-12-22T16:15:31.581Z,85.00
2022-12-22T16:17:59.010Z,85.00
2022-12-22T16:20:26.396Z,84.90
2022-12-22T16:22:54.085Z,84.50
2022-12-22T16:25:24.334Z,84.60
2022-12-22T16:27:51.567Z,84.40
2022-12-22T16:30:22.959Z,84.70
2022-12-22T16:32:50.337Z,84.40
2022-12-22T16:35:18.980Z,84.60
2022-12-22T16:37:49.400Z,84.40
2022-12-22T16:40:48.829Z,84.00
2022-12-22T16:46:06.973Z,84.00
2022-12-22T16:48:34.637Z,84.00
2022-12-22T16:51:01.678Z,83.40
2022-12-22T16:53:29.306Z,83.50
2022-12-22T16:55:56.556Z,83.50
2022-12-22T16:58:23.710Z,84.00
2022-12-22T17:00:51.584Z,83.30
2022-12-22T17:03:25.508Z,83.10
2022-12-22T17:05:58.864Z,82.70
2022-12-22T17:08:26.937Z,82.70
2022-12-22T17:10:57.520Z,82.50
2022-12-22T17:13:25.183Z,82.40
2022-12-22T17:15:52.790Z,82.30
2022-12-22T17:18:20.709Z,82.30
2022-12-22T17:20:49.251Z,81.80
2022-12-22T17:23:37.005Z,81.80
2022-12-22T17:26:07.052Z,81.90
2022-12-22T17:28:34.455Z,82.20
2022-12-22T17:31:01.959Z,82.40
2022-12-22T17:33:29.299Z,82.60
2022-12-22T17:35:56.618Z,82.80
2022-12-22T17:38:29.100Z,83.00
2022-12-22T17:40:57.807Z,83.10
2022-12-22T17:43:25.037Z,83.10
2022-12-22T17:45:56.312Z,83.40
2022-12-22T17:48:23.543Z,83.40
2022-12-22T17:50:51.099Z,83.40
2022-12-22T17:53:21.500Z,83.50
2022-12-22T17:58:36.294Z,83.40
2022-12-22T18:01:03.730Z,83.60
2022-12-22T18:03:30.908Z,83.50
2022-12-22T18:05:58.133Z,83.40
2022-12-22T18:08:25.437Z,82.90
2022-12-22T18:10:53.100Z,82.60
2022-12-22T18:13:29.307Z,82.30
2022-12-22T18:15:56.833Z,81.70
2022-12-22T18:18:26.521Z,81.40
2022-12-22T18:21:07.034Z,80.90
2022-12-22T18:23:51.438Z,80.60
2022-12-22T18:26:28.811Z,80.30
2022-12-22T18:28:56.423Z,78.90
2022-12-22T18:31:23.767Z,79.20
2022-12-22T18:33:54.926Z,78.60
2022-12-22T18:36:31.446Z,78.20
2022-12-22T18:39:13.244Z,78.00
2022-12-22T18:41:43.901Z,77.60
2022-12-22T18:44:22.990Z,77.90
2022-12-22T18:46:57.932Z,77.70
2022-12-22T18:49:28.245Z,77.70
2022-12-22T18:51:55.561Z,77.60
2022-12-22T18:54:22.969Z,76.70
2022-12-22T18:57:01.343Z,77.20
2022-12-22T18:59:33.203Z,77.10
2022-12-22T19:04:58.761Z,77.10
2022-12-22T19:07:29.656Z,77.50
2022-12-22T19:09:59.007Z,77.50
2022-12-22T19:12:30.082Z,77.70
2022-12-22T19:14:59.327Z,77.30
2022-12-22T19:17:35.619Z,77.90
2022-12-22T19:20:03.325Z,77.20
2022-12-22T19:22:30.628Z,76.60
2022-12-22T19:25:01.958Z,76.30
2022-12-22T19:27:44.398Z,76.20
2022-12-22T19:30:20.250Z,76.50
2022-12-22T19:33:07.226Z,76.30
2022-12-22T19:35:43.729Z,76.10
2022-12-22T19:38:26.260Z,76.00
2022-12-22T19:41:04.411Z,76.20
2022-12-22T19:43:42.357Z,76.00
2022-12-22T19:46:17.427Z,75.60
2022-12-22T19:48:48.956Z,75.50
2022-12-22T19:51:23.436Z,75.40
2022-12-22T19:53:59.965Z,75.90
2022-12-22T19:56:38.350Z,75.10
2022-12-22T19:59:26.954Z,74.80
2022-12-22T20:02:08.009Z,75.50
2022-12-22T20:07:26.130Z,75.00
2022-12-22T20:10:20.552Z,74.90
2022-12-22T20:13:09.294Z,75.60
2022-12-22T20:15:38.807Z,75.70
2022-12-22T20:18:25.468Z,75.20
2022-12-22T20:21:02.240Z,74.90
2022-12-22T20:23:37.010Z,74.70
2022-12-22T20:26:14.947Z,75.10
2022-12-22T20:28:59.324Z,75.00
2022-12-22T20:35:01.258Z,74.60
2022-12-22T20:37:35.772Z,74.50
2022-12-22T20:40:40.587Z,73.50
2022-12-22T20:43:29.734Z,73.20
2022-12-22T20:46:02.497Z,73.20
2022-12-22T20:48:43.907Z,73.00
2022-12-22T20:51:23.485Z,71.80
2022-12-22T20:54:04.166Z,72.10
2022-12-22T20:56:47.723Z,72.70
2022-12-22T20:59:56.798Z,70.10
2022-12-22T21:02:47.625Z,69.80
2022-12-22T21:05:26.926Z,70.10
2022-12-22T21:08:20.033Z,70.00
2022-12-22T21:11:05.563Z,70.10
2022-12-22T21:13:59.257Z,70.60
2022-12-22T21:16:31.226Z,70.10
2022-12-22T21:19:12.491Z,68.90
2022-12-22T21:22:00.527Z,69.80
2022-12-22T21:27:18.233Z,67.50
2022-12-22T21:30:02.691Z,68.00
2022-12-22T21:35:31.311Z,65.50
2022-12-22T21:38:12.529Z,65.50
2022-12-22T21:40:54.714Z,66.60
2022-12-22T21:43:35.841Z,68.40
2022-12-22T21:46:28.156Z,68.60
2022-12-22T21:49:06.289Z,68.70
2022-12-22T21:52:00.736Z,69.30
2022-12-22T21:54:34.787Z,69.50
2022-12-22T21:57:06.901Z,69.10
2022-12-22T21:59:46.700Z,68.20
2022-12-22T22:05:43.928Z,67.80
2022-12-22T22:08:21.825Z,67.60
2022-12-22T22:11:06.451Z,66.80
2022-12-22T22:13:50.971Z,65.10
2022-12-22T22:16:30.302Z,66.20
2022-12-22T22:19:08.821Z,66.90
2022-12-22T22:21:56.410Z,67.20
2022-12-22T22:24:27.983Z,67.20
2022-12-22T22:27:10.911Z,67.20
2022-12-22T22:30:00.227Z,67.70
2022-12-22T22:35:38.860Z,68.10
2022-12-22T22:38:30.470Z,67.10
2022-12-22T22:41:12.359Z,66.70
2022-12-22T22:44:24.872Z,66.70
2022-12-22T22:46:53.181Z,66.40
2022-12-22T22:49:52.807Z,66.00
2022-12-22T22:53:08.665Z,66.00
2022-12-22T22:55:50.927Z,65.30
2022-12-22T22:58:58.770Z,65.50
2022-12-22T23:01:52.584Z,65.60
2022-12-22T23:04:28.404Z,65.70
2022-12-22T23:06:59.589Z,65.40
2022-12-22T23:09:37.868Z,65.90
2022-12-22T23:12:26.102Z,65.90
2022-12-22T23:15:26.128Z,66.60
2022-12-22T23:18:03.138Z,67.50
2022-12-22T23:20:56.460Z,68.40
2022-12-22T23:23:45.114Z,69.00
2022-12-22T23:26:29.457Z,69.40
2022-12-22T23:29:22.021Z,69.80
2022-12-22T23:31:53.889Z,69.50
2022-12-22T23:34:31.852Z,69.40
2022-12-22T23:37:05.845Z,69.30
2022-12-22T23:45:15.993Z,67.60
2022-12-22T23:47:51.874Z,67.00
2022-12-22T23:50:41.362Z,66.30
2022-12-22T23:53:15.987Z,66.50
2022-12-22T23:55:56.768Z,67.00
2022-12-22T23:58:33.961Z,66.40
